sensor_id;sensor_type;location;lat;lon;timestamp;P1;durP1;ratioP1;P2;durP2;ratioP2
1380;SDS011;684;48.342;10.096;2023-04-03T00:01:38;7.97;;;5.00;;
1380;SDS011;684;48.342;10.096;2023-04-03T00:04:05;8.00;;;4.87;;
1380;SDS011;684;48.342;10.096;2023-04-03T00:06:32;8.53;;;5.70;;
1380;SDS011;684;48.342;10.096;2023-04-03T00:09:00;8.97;;;5.60;;
1380;SDS011;684;48.342;10.096;2023-04-03T00:11:28;8.13;;;4.97;;
1380;SDS011;684;48.342;10.096;2023-04-03T00:13:54;7.63;;;4.93;;
1380;SDS011;684;48.342;10.096;2023-04-03T00:16:21;8.80;;;5.27;;
1380;SDS011;684;48.342;10.096;2023-04-03T00:18:48;7.13;;;4.77;;
1380;SDS011;684;48.342;10.096;2023-04-03T00:21:15;8.93;;;5.73;;
1380;SDS011;684;48.342;10.096;2023-04-03T00:23:41;9.10;;;5.90;;
1380;SDS011;684;48.342;10.096;2023-04-03T00:26:08;7.57;;;4.70;;
1380;SDS011;684;48.342;10.096;2023-04-03T00:28:36;7.30;;;4.70;;
1380;SDS011;684;48.342;10.096;2023-04-03T00:31:03;9.13;;;5.03;;
1380;SDS011;684;48.342;10.096;2023-04-03T00:33:30;8.40;;;4.87;;
1380;SDS011;684;48.342;10.096;2023-04-03T00:35:57;11.90;;;5.73;;
1380;SDS011;684;48.342;10.096;2023-04-03T00:38:23;9.20;;;5.33;;
1380;SDS011;684;48.342;10.096;2023-04-03T00:40:50;8.30;;;5.20;;
1380;SDS011;684;48.342;10.096;2023-04-03T00:43:18;8.57;;;5.00;;
1380;SDS011;684;48.342;10.096;2023-04-03T00:45:47;7.30;;;4.30;;
1380;SDS011;684;48.342;10.096;2023-04-03T00:48:15;6.63;;;4.13;;
1380;SDS011;684;48.342;10.096;2023-04-03T00:50:46;8.30;;;5.67;;
1380;SDS011;684;48.342;10.096;2023-04-03T00:53:14;9.50;;;5.60;;
1380;SDS011;684;48.342;10.096;2023-04-03T00:55:44;9.70;;;4.70;;
1380;SDS011;684;48.342;10.096;2023-04-03T00:58:12;7.40;;;5.20;;
1380;SDS011;684;48.342;10.096;2023-04-03T01:00:42;11.90;;;4.90;;
1380;SDS011;684;48.342;10.096;2023-04-03T01:03:13;10.53;;;4.57;;
1380;SDS011;684;48.342;10.096;2023-04-03T01:05:40;7.83;;;5.00;;
1380;SDS011;684;48.342;10.096;2023-04-03T01:08:07;13.30;;;6.13;;
1380;SDS011;684;48.342;10.096;2023-04-03T01:10:34;7.00;;;4.23;;
1380;SDS011;684;48.342;10.096;2023-04-03T01:13:01;7.73;;;4.53;;
1380;SDS011;684;48.342;10.096;2023-04-03T01:15:42;7.90;;;4.77;;
1380;SDS011;684;48.342;10.096;2023-04-03T01:18:09;8.90;;;4.87;;
1380;SDS011;684;48.342;10.096;2023-04-03T01:23:48;8.23;;;4.97;;
1380;SDS011;684;48.342;10.096;2023-04-03T01:26:23;8.83;;;4.60;;
1380;SDS011;684;48.342;10.096;2023-04-03T01:28:50;7.03;;;4.23;;
1380;SDS011;684;48.342;10.096;2023-04-03T01:31:21;8.47;;;4.83;;
1380;SDS011;684;48.342;10.096;2023-04-03T01:33:53;6.97;;;4.50;;
1380;SDS011;684;48.342;10.096;2023-04-03T01:36:21;8.30;;;4.77;;
1380;SDS011;684;48.342;10.096;2023-04-03T01:38:50;7.50;;;4.40;;
1380;SDS011;684;48.342;10.096;2023-04-03T01:41:17;10.33;;;5.13;;
1380;SDS011;684;48.342;10.096;2023-04-03T01:43:45;7.00;;;4.60;;
1380;SDS011;684;48.342;10.096;2023-04-03T01:46:12;8.10;;;4.57;;
1380;SDS011;684;48.342;10.096;2023-04-03T01:48:39;6.90;;;4.27;;
1380;SDS011;684;48.342;10.096;2023-04-03T01:51:08;8.00;;;5.40;;
1380;SDS011;684;48.342;10.096;2023-04-03T01:53:34;7.10;;;4.63;;
1380;SDS011;684;48.342;10.096;2023-04-03T01:56:01;6.83;;;4.10;;
1380;SDS011;684;48.342;10.096;2023-04-03T01:58:28;7.30;;;4.53;;
1380;SDS011;684;48.342;10.096;2023-04-03T02:00:55;7.33;;;4.70;;
1380;SDS011;684;48.342;10.096;2023-04-03T02:03:21;8.50;;;4.97;;
1380;SDS011;684;48.342;10.096;2023-04-03T02:05:49;10.50;;;5.27;;
1380;SDS011;684;48.342;10.096;2023-04-03T02:08:17;7.40;;;4.33;;
1380;SDS011;684;48.342;10.096;2023-04-03T02:10:44;11.17;;;5.60;;
1380;SDS011;684;48.342;10.096;2023-04-03T02:13:13;8.37;;;4.90;;
1380;SDS011;684;48.342;10.096;2023-04-03T02:15:40;7.73;;;5.40;;
1380;SDS011;684;48.342;10.096;2023-04-03T02:18:07;7.43;;;4.27;;
1380;SDS011;684;48.342;10.096;2023-04-03T02:20:34;8.17;;;5.13;;
1380;SDS011;684;48.342;10.096;2023-04-03T02:23:01;8.87;;;4.40;;
1380;SDS011;684;48.342;10.096;2023-04-03T02:25:29;8.83;;;4.50;;
1380;SDS011;684;48.342;10.096;2023-04-03T02:27:56;7.87;;;4.90;;
1380;SDS011;684;48.342;10.096;2023-04-03T02:30:23;8.40;;;5.40;;
1380;SDS011;684;48.342;10.096;2023-04-03T02:32:50;8.33;;;5.37;;
1380;SDS011;684;48.342;10.096;2023-04-03T02:35:16;8.73;;;5.67;;
1380;SDS011;684;48.342;10.096;2023-04-03T02:37:43;7.50;;;4.57;;
1380;SDS011;684;48.342;10.096;2023-04-03T02:40:10;8.20;;;4.70;;
1380;SDS011;684;48.342;10.096;2023-04-03T02:42:38;6.60;;;4.30;;
1380;SDS011;684;48.342;10.096;2023-04-03T02:45:06;13.30;;;4.70;;
1380;SDS011;684;48.342;10.096;2023-04-03T02:47:33;7.10;;;4.57;;
1380;SDS011;684;48.342;10.096;2023-04-03T02:50:00;8.73;;;5.10;;
1380;SDS011;684;48.342;10.096;2023-04-03T02:52:26;8.10;;;5.00;;
1380;SDS011;684;48.342;10.096;2023-04-03T02:54:53;8.20;;;5.07;;
1380;SDS011;684;48.342;10.096;2023-04-03T02:57:20;8.70;;;5.40;;
1380;SDS011;684;48.342;10.096;2023-04-03T02:59:48;7.50;;;4.50;;
1380;SDS011;684;48.342;10.096;2023-04-03T03:02:15;8.03;;;4.70;;
1380;SDS011;684;48.342;10.096;2023-04-03T03:04:42;8.40;;;5.00;;
1380;SDS011;684;48.342;10.096;2023-04-03T03:07:09;6.83;;;4.43;;
1380;SDS011;684;48.342;10.096;2023-04-03T03:09:35;7.87;;;3.90;;
1380;SDS011;684;48.342;10.096;2023-04-03T03:12:02;8.00;;;4.27;;
1380;SDS011;684;48.342;10.096;2023-04-03T03:14:29;9.10;;;3.93;;
1380;SDS011;684;48.342;10.096;2023-04-03T03:16:57;11.83;;;5.90;;
1380;SDS011;684;48.342;10.096;2023-04-03T03:19:24;11.80;;;6.37;;
1380;SDS011;684;48.342;10.096;2023-04-03T03:21:51;8.93;;;5.60;;
1380;SDS011;684;48.342;10.096;2023-04-03T03:24:17;7.40;;;3.60;;
1380;SDS011;684;48.342;10.096;2023-04-03T03:26:44;7.33;;;3.80;;
1380;SDS011;684;48.342;10.096;2023-04-03T03:29:11;6.80;;;3.80;;
1380;SDS011;684;48.342;10.096;2023-04-03T03:31:37;7.43;;;4.10;;
1380;SDS011;684;48.342;10.096;2023-04-03T03:34:06;7.83;;;3.70;;
1380;SDS011;684;48.342;10.096;2023-04-03T03:36:32;5.33;;;3.03;;
1380;SDS011;684;48.342;10.096;2023-04-03T03:38:59;5.43;;;2.97;;
1380;SDS011;684;48.342;10.096;2023-04-03T03:41:26;6.90;;;3.33;;
1380;SDS011;684;48.342;10.096;2023-04-03T03:43:53;8.20;;;3.10;;
1380;SDS011;684;48.342;10.096;2023-04-03T03:46:20;5.70;;;2.63;;
1380;SDS011;684;48.342;10.096;2023-04-03T03:48:47;5.87;;;3.03;;
1380;SDS011;684;48.342;10.096;2023-04-03T03:51:15;5.80;;;3.40;;
1380;SDS011;684;48.342;10.096;2023-04-03T03:53:41;6.60;;;3.20;;
1380;SDS011;684;48.342;10.096;2023-04-03T03:56:08;5.70;;;2.97;;
1380;SDS011;684;48.342;10.096;2023-04-03T03:58:35;5.63;;;2.97;;
1380;SDS011;684;48.342;10.096;2023-04-03T04:01:02;5.97;;;3.00;;
1380;SDS011;684;48.342;10.096;2023-04-03T04:03:30;5.97;;;2.93;;
1380;SDS011;684;48.342;10.096;2023-04-03T04:05:57;5.83;;;3.13;;
1380;SDS011;684;48.342;10.096;2023-04-03T04:08:25;7.50;;;3.33;;
1380;SDS011;684;48.342;10.096;2023-04-03T04:10:53;5.50;;;2.50;;
1380;SDS011;684;48.342;10.096;2023-04-03T04:13:20;6.30;;;3.07;;
1380;SDS011;684;48.342;10.096;2023-04-03T04:15:47;5.47;;;2.43;;
1380;SDS011;684;48.342;10.096;2023-04-03T04:18:13;6.57;;;3.00;;
1380;SDS011;684;48.342;10.096;2023-04-03T04:20:40;5.40;;;2.47;;
1380;SDS011;684;48.342;10.096;2023-04-03T04:23:07;5.10;;;2.27;;
1380;SDS011;684;48.342;10.096;2023-04-03T04:25:35;6.27;;;3.40;;
1380;SDS011;684;48.342;10.096;2023-04-03T04:28:02;6.87;;;2.70;;
1380;SDS011;684;48.342;10.096;2023-04-03T04:30:29;6.50;;;3.03;;
1380;SDS011;684;48.342;10.096;2023-04-03T04:32:55;6.73;;;3.00;;
1380;SDS011;684;48.342;10.096;2023-04-03T04:35:22;6.00;;;2.80;;
1380;SDS011;684;48.342;10.096;2023-04-03T04:37:49;5.87;;;2.70;;
1380;SDS011;684;48.342;10.096;2023-04-03T04:40:16;5.80;;;2.87;;
1380;SDS011;684;48.342;10.096;2023-04-03T04:42:44;6.10;;;2.67;;
1380;SDS011;684;48.342;10.096;2023-04-03T04:45:11;6.73;;;2.70;;
1380;SDS011;684;48.342;10.096;2023-04-03T04:47:38;5.30;;;2.80;;
1380;SDS011;684;48.342;10.096;2023-04-03T04:50:05;5.70;;;2.70;;
1380;SDS011;684;48.342;10.096;2023-04-03T04:52:32;5.87;;;2.57;;
1380;SDS011;684;48.342;10.096;2023-04-03T04:54:59;5.30;;;2.60;;
1380;SDS011;684;48.342;10.096;2023-04-03T04:57:26;6.80;;;3.40;;
1380;SDS011;684;48.342;10.096;2023-04-03T04:59:54;6.67;;;3.57;;
1380;SDS011;684;48.342;10.096;2023-04-03T05:02:21;5.80;;;3.07;;
1380;SDS011;684;48.342;10.096;2023-04-03T05:04:47;6.20;;;3.50;;
1380;SDS011;684;48.342;10.096;2023-04-03T05:07:16;5.70;;;2.57;;
1380;SDS011;684;48.342;10.096;2023-04-03T05:09:43;7.30;;;3.30;;
1380;SDS011;684;48.342;10.096;2023-04-03T05:12:10;7.93;;;3.20;;
1380;SDS011;684;48.342;10.096;2023-04-03T05:14:37;6.70;;;2.87;;
1380;SDS011;684;48.342;10.096;2023-04-03T05:17:05;7.70;;;3.67;;
1380;SDS011;684;48.342;10.096;2023-04-03T05:19:31;5.90;;;2.90;;
1380;SDS011;684;48.342;10.096;2023-04-03T05:21:58;6.70;;;2.80;;
1380;SDS011;684;48.342;10.096;2023-04-03T05:24:25;5.67;;;3.03;;
1380;SDS011;684;48.342;10.096;2023-04-03T05:26:52;7.83;;;3.50;;
1380;SDS011;684;48.342;10.096;2023-04-03T05:29:18;6.00;;;3.30;;
1380;SDS011;684;48.342;10.096;2023-04-03T05:31:48;6.70;;;3.60;;
1380;SDS011;684;48.342;10.096;2023-04-03T05:34:17;7.17;;;3.43;;
1380;SDS011;684;48.342;10.096;2023-04-03T05:36:43;7.17;;;3.50;;
1380;SDS011;684;48.342;10.096;2023-04-03T05:39:10;8.40;;;3.30;;
1380;SDS011;684;48.342;10.096;2023-04-03T05:41:37;6.70;;;3.30;;
1380;SDS011;684;48.342;10.096;2023-04-03T05:44:03;6.67;;;3.60;;
1380;SDS011;684;48.342;10.096;2023-04-03T05:46:30;8.40;;;4.10;;
1380;SDS011;684;48.342;10.096;2023-04-03T05:48:58;5.83;;;3.07;;
1380;SDS011;684;48.342;10.096;2023-04-03T05:51:28;6.03;;;2.97;;
1380;SDS011;684;48.342;10.096;2023-04-03T05:53:59;7.27;;;2.93;;
1380;SDS011;684;48.342;10.096;2023-04-03T05:56:32;7.33;;;3.37;;
1380;SDS011;684;48.342;10.096;2023-04-03T05:58:58;6.07;;;3.20;;
1380;SDS011;684;48.342;10.096;2023-04-03T06:01:25;6.27;;;3.00;;
1380;SDS011;684;48.342;10.096;2023-04-03T06:03:52;5.87;;;3.13;;
1380;SDS011;684;48.342;10.096;2023-04-03T06:06:20;9.03;;;3.20;;
1380;SDS011;684;48.342;10.096;2023-04-03T06:08:49;6.93;;;3.10;;
1380;SDS011;684;48.342;10.096;2023-04-03T06:11:16;7.23;;;3.93;;
1380;SDS011;684;48.342;10.096;2023-04-03T06:13:43;7.80;;;3.27;;
1380;SDS011;684;48.342;10.096;2023-04-03T06:16:11;6.53;;;3.43;;
1380;SDS011;684;48.342;10.096;2023-04-03T06:18:40;6.90;;;3.47;;
1380;SDS011;684;48.342;10.096;2023-04-03T06:21:07;6.30;;;3.17;;
1380;SDS011;684;48.342;10.096;2023-04-03T06:23:34;6.93;;;3.73;;
1380;SDS011;684;48.342;10.096;2023-04-03T06:26:02;6.97;;;3.17;;
1380;SDS011;684;48.342;10.096;2023-04-03T06:28:30;6.77;;;3.53;;
1380;SDS011;684;48.342;10.096;2023-04-03T06:30:57;7.63;;;3.50;;
1380;SDS011;684;48.342;10.096;2023-04-03T06:33:23;6.20;;;3.63;;
1380;SDS011;684;48.342;10.096;2023-04-03T06:35:55;6.53;;;3.07;;
1380;SDS011;684;48.342;10.096;2023-04-03T06:38:23;7.47;;;3.40;;
1380;SDS011;684;48.342;10.096;2023-04-03T06:40:51;7.40;;;2.93;;
1380;SDS011;684;48.342;10.096;2023-04-03T06:43:19;8.00;;;3.83;;
1380;SDS011;684;48.342;10.096;2023-04-03T06:45:46;7.30;;;3.37;;
1380;SDS011;684;48.342;10.096;2023-04-03T06:48:13;7.47;;;3.83;;
1380;SDS011;684;48.342;10.096;2023-04-03T06:50:40;6.30;;;3.63;;
1380;SDS011;684;48.342;10.096;2023-04-03T06:53:07;7.77;;;3.73;;
1380;SDS011;684;48.342;10.096;2023-04-03T06:55:34;5.67;;;2.70;;
1380;SDS011;684;48.342;10.096;2023-04-03T06:58:01;8.03;;;3.63;;
1380;SDS011;684;48.342;10.096;2023-04-03T07:00:30;6.37;;;3.30;;
1380;SDS011;684;48.342;10.096;2023-04-03T07:02:56;11.23;;;4.53;;
1380;SDS011;684;48.342;10.096;2023-04-03T07:05:23;6.33;;;2.97;;
1380;SDS011;684;48.342;10.096;2023-04-03T07:07:51;6.90;;;3.87;;
1380;SDS011;684;48.342;10.096;2023-04-03T07:10:18;7.50;;;4.13;;
1380;SDS011;684;48.342;10.096;2023-04-03T07:12:45;7.17;;;4.23;;
1380;SDS011;684;48.342;10.096;2023-04-03T07:15:11;6.60;;;3.90;;
1380;SDS011;684;48.342;10.096;2023-04-03T07:17:40;7.23;;;3.23;;
1380;SDS011;684;48.342;10.096;2023-04-03T07:20:08;7.63;;;4.03;;
1380;SDS011;684;48.342;10.096;2023-04-03T07:22:35;7.07;;;4.20;;
1380;SDS011;684;48.342;10.096;2023-04-03T07:25:02;6.80;;;3.80;;
1380;SDS011;684;48.342;10.096;2023-04-03T07:27:32;9.47;;;4.23;;
1380;SDS011;684;48.342;10.096;2023-04-03T07:29:59;6.60;;;4.20;;
1380;SDS011;684;48.342;10.096;2023-04-03T07:32:26;6.77;;;3.17;;
1380;SDS011;684;48.342;10.096;2023-04-03T07:34:54;5.57;;;3.10;;
1380;SDS011;684;48.342;10.096;2023-04-03T07:37:20;9.50;;;4.30;;
1380;SDS011;684;48.342;10.096;2023-04-03T07:39:47;6.63;;;3.83;;
1380;SDS011;684;48.342;10.096;2023-04-03T07:42:14;7.93;;;4.17;;
1380;SDS011;684;48.342;10.096;2023-04-03T07:44:41;6.63;;;3.53;;
1380;SDS011;684;48.342;10.096;2023-04-03T07:47:08;6.27;;;3.40;;
1380;SDS011;684;48.342;10.096;2023-04-03T07:49:35;7.13;;;3.43;;
1380;SDS011;684;48.342;10.096;2023-04-03T07:52:06;7.93;;;4.20;;
1380;SDS011;684;48.342;10.096;2023-04-03T07:54:34;6.10;;;3.40;;
1380;SDS011;684;48.342;10.096;2023-04-03T07:57:00;6.30;;;3.60;;
1380;SDS011;684;48.342;10.096;2023-04-03T07:59:27;8.87;;;4.00;;
1380;SDS011;684;48.342;10.096;2023-04-03T08:01:54;5.93;;;3.67;;
1380;SDS011;684;48.342;10.096;2023-04-03T08:04:21;6.97;;;3.33;;
1380;SDS011;684;48.342;10.096;2023-04-03T08:06:48;7.43;;;3.33;;
1380;SDS011;684;48.342;10.096;2023-04-03T08:09:17;6.63;;;3.10;;
1380;SDS011;684;48.342;10.096;2023-04-03T08:11:44;5.60;;;3.53;;
1380;SDS011;684;48.342;10.096;2023-04-03T08:14:11;5.63;;;3.17;;
1380;SDS011;684;48.342;10.096;2023-04-03T08:16:41;6.10;;;3.40;;
1380;SDS011;684;48.342;10.096;2023-04-03T08:19:08;8.50;;;5.50;;
1380;SDS011;684;48.342;10.096;2023-04-03T08:21:35;8.77;;;3.10;;
1380;SDS011;684;48.342;10.096;2023-04-03T08:24:02;5.97;;;3.10;;
1380;SDS011;684;48.342;10.096;2023-04-03T08:26:32;7.10;;;3.47;;
1380;SDS011;684;48.342;10.096;2023-04-03T08:28:59;6.50;;;3.67;;
1380;SDS011;684;48.342;10.096;2023-04-03T08:31:26;5.93;;;3.03;;
1380;SDS011;684;48.342;10.096;2023-04-03T08:33:53;6.40;;;3.73;;
1380;SDS011;684;48.342;10.096;2023-04-03T08:36:21;6.20;;;3.40;;
1380;SDS011;684;48.342;10.096;2023-04-03T08:38:49;6.80;;;3.70;;
1380;SDS011;684;48.342;10.096;2023-04-03T08:41:19;7.50;;;4.03;;
1380;SDS011;684;48.342;10.096;2023-04-03T08:44:01;9.43;;;4.10;;
1380;SDS011;684;48.342;10.096;2023-04-03T08:46:42;6.73;;;3.40;;
1380;SDS011;684;48.342;10.096;2023-04-03T08:49:21;7.17;;;3.53;;
1380;SDS011;684;48.342;10.096;2023-04-03T08:51:50;7.00;;;3.10;;
1380;SDS011;684;48.342;10.096;2023-04-03T08:54:21;5.87;;;3.33;;
1380;SDS011;684;48.342;10.096;2023-04-03T08:56:53;6.87;;;3.53;;
1380;SDS011;684;48.342;10.096;2023-04-03T08:59:24;7.40;;;3.60;;
1380;SDS011;684;48.342;10.096;2023-04-03T09:01:54;7.00;;;3.03;;
1380;SDS011;684;48.342;10.096;2023-04-03T09:04:23;6.20;;;3.47;;
1380;SDS011;684;48.342;10.096;2023-04-03T09:06:53;7.60;;;3.57;;
1380;SDS011;684;48.342;10.096;2023-04-03T09:09:27;6.80;;;3.27;;
1380;SDS011;684;48.342;10.096;2023-04-03T09:12:00;7.07;;;3.20;;
1380;SDS011;684;48.342;10.096;2023-04-03T09:14:38;5.60;;;3.60;;
1380;SDS011;684;48.342;10.096;2023-04-03T09:17:11;7.40;;;2.80;;
1380;SDS011;684;48.342;10.096;2023-04-03T09:19:41;6.40;;;3.50;;
1380;SDS011;684;48.342;10.096;2023-04-03T09:22:16;8.67;;;3.40;;
1380;SDS011;684;48.342;10.096;2023-04-03T09:24:47;8.13;;;3.67;;
1380;SDS011;684;48.342;10.096;2023-04-03T09:27:18;10.83;;;3.53;;
1380;SDS011;684;48.342;10.096;2023-04-03T09:29:46;6.87;;;3.17;;
1380;SDS011;684;48.342;10.096;2023-04-03T09:32:18;6.17;;;3.10;;
1380;SDS011;684;48.342;10.096;2023-04-03T09:34:48;7.60;;;2.90;;
1380;SDS011;684;48.342;10.096;2023-04-03T09:40:01;7.00;;;3.30;;
1380;SDS011;684;48.342;10.096;2023-04-03T09:42:29;7.83;;;3.33;;
1380;SDS011;684;48.342;10.096;2023-04-03T09:45:00;7.13;;;3.50;;
1380;SDS011;684;48.342;10.096;2023-04-03T09:47:29;8.57;;;3.80;;
1380;SDS011;684;48.342;10.096;2023-04-03T09:50:17;7.30;;;3.50;;
1380;SDS011;684;48.342;10.096;2023-04-03T09:52:46;6.83;;;3.77;;
1380;SDS011;684;48.342;10.096;2023-04-03T09:55:14;5.60;;;3.17;;
1380;SDS011;684;48.342;10.096;2023-04-03T09:57:43;8.40;;;3.63;;
1380;SDS011;684;48.342;10.096;2023-04-03T10:00:21;6.30;;;3.33;;
1380;SDS011;684;48.342;10.096;2023-04-03T10:02:49;5.50;;;2.80;;
1380;SDS011;684;48.342;10.096;2023-04-03T10:05:29;6.80;;;3.00;;
1380;SDS011;684;48.342;10.096;2023-04-03T10:08:06;7.37;;;3.33;;
1380;SDS011;684;48.342;10.096;2023-04-03T10:10:37;6.90;;;3.57;;
1380;SDS011;684;48.342;10.096;2023-04-03T10:13:05;8.60;;;3.50;;
1380;SDS011;684;48.342;10.096;2023-04-03T10:15:36;6.07;;;3.17;;
1380;SDS011;684;48.342;10.096;2023-04-03T10:18:10;6.63;;;3.23;;
1380;SDS011;684;48.342;10.096;2023-04-03T10:20:51;6.50;;;3.43;;
1380;SDS011;684;48.342;10.096;2023-04-03T10:23:21;5.40;;;2.77;;
1380;SDS011;684;48.342;10.096;2023-04-03T10:25:55;7.90;;;3.30;;
1380;SDS011;684;48.342;10.096;2023-04-03T10:28:27;6.70;;;3.80;;
1380;SDS011;684;48.342;10.096;2023-04-03T10:31:05;6.30;;;4.20;;
1380;SDS011;684;48.342;10.096;2023-04-03T10:33:39;7.13;;;3.40;;
1380;SDS011;684;48.342;10.096;2023-04-03T10:36:19;6.40;;;3.60;;
1380;SDS011;684;48.342;10.096;2023-04-03T10:39:01;5.60;;;3.57;;
1380;SDS011;684;48.342;10.096;2023-04-03T10:41:42;7.27;;;3.63;;
1380;SDS011;684;48.342;10.096;2023-04-03T10:44:19;7.23;;;3.10;;
1380;SDS011;684;48.342;10.096;2023-04-03T10:46:55;7.20;;;3.73;;
1380;SDS011;684;48.342;10.096;2023-04-03T10:49:32;5.80;;;3.03;;
1380;SDS011;684;48.342;10.096;2023-04-03T10:52:10;7.10;;;3.23;;
1380;SDS011;684;48.342;10.096;2023-04-03T10:54:43;6.67;;;3.43;;
1380;SDS011;684;48.342;10.096;2023-04-03T10:57:15;6.03;;;3.30;;
1380;SDS011;684;48.342;10.096;2023-04-03T10:59:43;4.40;;;2.33;;
1380;SDS011;684;48.342;10.096;2023-04-03T11:02:16;5.07;;;2.60;;
1380;SDS011;684;48.342;10.096;2023-04-03T11:04:50;5.90;;;3.33;;
1380;SDS011;684;48.342;10.096;2023-04-03T11:07:20;5.77;;;2.93;;
1380;SDS011;684;48.342;10.096;2023-04-03T11:09:49;5.13;;;2.60;;
1380;SDS011;684;48.342;10.096;2023-04-03T11:12:21;6.20;;;3.07;;
1380;SDS011;684;48.342;10.096;2023-04-03T11:14:53;5.00;;;2.90;;
1380;SDS011;684;48.342;10.096;2023-04-03T11:17:26;6.50;;;3.30;;
1380;SDS011;684;48.342;10.096;2023-04-03T11:19:58;8.50;;;2.80;;
1380;SDS011;684;48.342;10.096;2023-04-03T11:22:32;5.50;;;2.50;;
1380;SDS011;684;48.342;10.096;2023-04-03T11:25:03;6.70;;;2.87;;
1380;SDS011;684;48.342;10.096;2023-04-03T11:27:33;8.40;;;2.70;;
1380;SDS011;684;48.342;10.096;2023-04-03T11:30:05;6.00;;;3.27;;
1380;SDS011;684;48.342;10.096;2023-04-03T11:35:41;6.77;;;2.93;;
1380;SDS011;684;48.342;10.096;2023-04-03T11:38:13;6.13;;;3.13;;
1380;SDS011;684;48.342;10.096;2023-04-03T11:40:45;6.20;;;2.80;;
1380;SDS011;684;48.342;10.096;2023-04-03T11:43:23;6.97;;;2.90;;
1380;SDS011;684;48.342;10.096;2023-04-03T11:45:55;5.80;;;2.80;;
1380;SDS011;684;48.342;10.096;2023-04-03T12:00:47;6.47;;;3.03;;
1380;SDS011;684;48.342;10.096;2023-04-03T12:12:55;5.67;;;2.20;;
1380;SDS011;684;48.342;10.096;2023-04-03T12:18:31;5.83;;;2.80;;
1380;SDS011;684;48.342;10.096;2023-04-03T12:21:11;5.30;;;2.40;;
1380;SDS011;684;48.342;10.096;2023-04-03T12:26:26;7.40;;;2.83;;
1380;SDS011;684;48.342;10.096;2023-04-03T12:28:56;5.00;;;2.80;;
1380;SDS011;684;48.342;10.096;2023-04-03T12:31:24;6.90;;;3.00;;
1380;SDS011;684;48.342;10.096;2023-04-03T12:34:09;7.50;;;2.87;;
1380;SDS011;684;48.342;10.096;2023-04-03T12:36:48;5.20;;;2.50;;
1380;SDS011;684;48.342;10.096;2023-04-03T12:39:41;5.87;;;2.90;;
1380;SDS011;684;48.342;10.096;2023-04-03T12:42:18;6.73;;;2.77;;
1380;SDS011;684;48.342;10.096;2023-04-03T12:44:57;5.17;;;2.57;;
1380;SDS011;684;48.342;10.096;2023-04-03T12:47:29;5.07;;;2.40;;
1380;SDS011;684;48.342;10.096;2023-04-03T12:50:01;7.43;;;2.30;;
1380;SDS011;684;48.342;10.096;2023-04-03T12:52:33;5.53;;;2.70;;
1380;SDS011;684;48.342;10.096;2023-04-03T12:55:07;5.83;;;2.63;;
1380;SDS011;684;48.342;10.096;2023-04-03T12:57:40;5.50;;;2.37;;
1380;SDS011;684;48.342;10.096;2023-04-03T13:02:57;6.30;;;2.30;;
1380;SDS011;684;48.342;10.096;2023-04-03T13:05:24;5.30;;;2.33;;
1380;SDS011;684;48.342;10.096;2023-04-03T13:07:54;7.10;;;3.07;;
1380;SDS011;684;48.342;10.096;2023-04-03T13:10:25;6.93;;;2.63;;
1380;SDS011;684;48.342;10.096;2023-04-03T13:12:52;5.20;;;2.60;;
1380;SDS011;684;48.342;10.096;2023-04-03T13:15:21;5.00;;;2.30;;
1380;SDS011;684;48.342;10.096;2023-04-03T13:17:49;4.60;;;2.00;;
1380;SDS011;684;48.342;10.096;2023-04-03T13:20:19;5.07;;;2.33;;
1380;SDS011;684;48.342;10.096;2023-04-03T13:22:50;6.03;;;2.70;;
1380;SDS011;684;48.342;10.096;2023-04-03T13:25:23;5.20;;;2.60;;
1380;SDS011;684;48.342;10.096;2023-04-03T13:27:52;5.30;;;2.50;;
1380;SDS011;684;48.342;10.096;2023-04-03T13:30:21;7.20;;;2.40;;
1380;SDS011;684;48.342;10.096;2023-04-03T13:32:52;6.20;;;2.90;;
1380;SDS011;684;48.342;10.096;2023-04-03T13:35:27;5.13;;;2.10;;
1380;SDS011;684;48.342;10.096;2023-04-03T13:38:01;8.37;;;2.93;;
1380;SDS011;684;48.342;10.096;2023-04-03T13:40:30;5.43;;;2.70;;
1380;SDS011;684;48.342;10.096;2023-04-03T13:42:59;7.13;;;2.50;;
1380;SDS011;684;48.342;10.096;2023-04-03T13:45:27;5.83;;;2.13;;
1380;SDS011;684;48.342;10.096;2023-04-03T13:48:07;5.37;;;2.10;;
1380;SDS011;684;48.342;10.096;2023-04-03T13:50:50;5.60;;;3.10;;
1380;SDS011;684;48.342;10.096;2023-04-03T13:53:24;5.10;;;2.50;;
1380;SDS011;684;48.342;10.096;2023-04-03T13:55:54;6.90;;;2.83;;
1380;SDS011;684;48.342;10.096;2023-04-03T13:58:23;5.50;;;2.40;;
1380;SDS011;684;48.342;10.096;2023-04-03T14:00:52;6.27;;;2.43;;
1380;SDS011;684;48.342;10.096;2023-04-03T14:03:21;7.27;;;3.23;;
1380;SDS011;684;48.342;10.096;2023-04-03T14:05:50;6.73;;;2.73;;
1380;SDS011;684;48.342;10.096;2023-04-03T14:08:16;5.73;;;3.20;;
1380;SDS011;684;48.342;10.096;2023-04-03T14:10:45;10.47;;;2.87;;
1380;SDS011;684;48.342;10.096;2023-04-03T14:13:15;4.30;;;2.00;;
1380;SDS011;684;48.342;10.096;2023-04-03T14:15:43;5.20;;;2.50;;
1380;SDS011;684;48.342;10.096;2023-04-03T14:18:11;5.13;;;2.20;;
1380;SDS011;684;48.342;10.096;2023-04-03T14:20:39;5.70;;;2.30;;
1380;SDS011;684;48.342;10.096;2023-04-03T14:23:06;5.10;;;2.47;;
1380;SDS011;684;48.342;10.096;2023-04-03T14:25:33;5.50;;;2.00;;
1380;SDS011;684;48.342;10.096;2023-04-03T14:28:06;6.07;;;2.40;;
1380;SDS011;684;48.342;10.096;2023-04-03T14:30:41;5.37;;;2.60;;
1380;SDS011;684;48.342;10.096;2023-04-03T14:33:09;5.33;;;2.60;;
1380;SDS011;684;48.342;10.096;2023-04-03T14:35:39;6.73;;;2.73;;
1380;SDS011;684;48.342;10.096;2023-04-03T14:38:09;10.13;;;2.63;;
1380;SDS011;684;48.342;10.096;2023-04-03T14:40:46;8.23;;;2.67;;
1380;SDS011;684;48.342;10.096;2023-04-03T14:43:15;5.77;;;3.00;;
1380;SDS011;684;48.342;10.096;2023-04-03T14:45:42;5.70;;;2.43;;
1380;SDS011;684;48.342;10.096;2023-04-03T14:48:09;7.00;;;2.63;;
1380;SDS011;684;48.342;10.096;2023-04-03T14:50:41;7.20;;;2.30;;
1380;SDS011;684;48.342;10.096;2023-04-03T14:53:10;5.40;;;2.13;;
1380;SDS011;684;48.342;10.096;2023-04-03T14:55:37;5.90;;;2.93;;
1380;SDS011;684;48.342;10.096;2023-04-03T14:58:04;8.23;;;2.33;;
1380;SDS011;684;48.342;10.096;2023-04-03T15:00:32;5.47;;;2.13;;
1380;SDS011;684;48.342;10.096;2023-04-03T15:02:59;7.20;;;2.80;;
1380;SDS011;684;48.342;10.096;2023-04-03T15:05:26;5.97;;;2.27;;
1380;SDS011;684;48.342;10.096;2023-04-03T15:07:54;5.60;;;2.60;;
1380;SDS011;684;48.342;10.096;2023-04-03T15:10:22;5.27;;;1.97;;
1380;SDS011;684;48.342;10.096;2023-04-03T15:12:50;5.77;;;2.30;;
1380;SDS011;684;48.342;10.096;2023-04-03T15:15:19;5.30;;;2.10;;
1380;SDS011;684;48.342;10.096;2023-04-03T15:17:50;6.57;;;2.73;;
1380;SDS011;684;48.342;10.096;2023-04-03T15:20:20;5.97;;;2.37;;
1380;SDS011;684;48.342;10.096;2023-04-03T15:22:49;5.40;;;2.57;;
1380;SDS011;684;48.342;10.096;2023-04-03T15:25:16;5.33;;;2.00;;
1380;SDS011;684;48.342;10.096;2023-04-03T15:27:44;6.50;;;1.70;;
1380;SDS011;684;48.342;10.096;2023-04-03T15:30:11;5.20;;;2.47;;
1380;SDS011;684;48.342;10.096;2023-04-03T15:32:41;6.37;;;2.20;;
1380;SDS011;684;48.342;10.096;2023-04-03T15:35:09;10.37;;;2.40;;
1380;SDS011;684;48.342;10.096;2023-04-03T15:37:36;4.67;;;1.67;;
1380;SDS011;684;48.342;10.096;2023-04-03T15:40:03;5.37;;;1.60;;
1380;SDS011;684;48.342;10.096;2023-04-03T15:42:31;5.07;;;2.17;;
1380;SDS011;684;48.342;10.096;2023-04-03T15:44:58;4.80;;;2.33;;
1380;SDS011;684;48.342;10.096;2023-04-03T15:47:24;5.40;;;1.80;;
1380;SDS011;684;48.342;10.096;2023-04-03T15:49:52;4.43;;;1.93;;
1380;SDS011;684;48.342;10.096;2023-04-03T15:52:21;4.63;;;1.90;;
1380;SDS011;684;48.342;10.096;2023-04-03T15:54:48;5.63;;;2.20;;
1380;SDS011;684;48.342;10.096;2023-04-03T15:57:15;8.20;;;4.00;;
1380;SDS011;684;48.342;10.096;2023-04-03T15:59:42;5.67;;;2.33;;
1380;SDS011;684;48.342;10.096;2023-04-03T16:02:09;5.00;;;1.97;;
1380;SDS011;684;48.342;10.096;2023-04-03T16:04:38;5.03;;;1.90;;
1380;SDS011;684;48.342;10.096;2023-04-03T16:07:05;5.53;;;1.73;;